Time;durP1;ratioP1;P1;durP2;ratioP2;P2;SDS_P1;SDS_P2;PMS_P1;PMS_P2;Temp;Humidity;BMP_temperature;BMP_pressure;BME280_temperature;BME280_humidity;BME280_pressure;Samples;Min_cycle;Max_cycle;Signal;HPM_P1;HPM_P2
2023/02/23 00:00:31;;;;;;;124.35;40.88;;;;;;;-146.27;100.00;48421.50;5080611;28;20028;-70
2023/02/23 00:03:00;;;;;;;127.10;40.45;;;;;;;-146.27;100.00;48399.59;5087018;28;20042;-69
2023/02/23 00:05:27;;;;;;;126.72;41.97;;;;;;;-146.27;100.00;48375.69;5088828;28;20105;-69
2023/02/23 00:07:53;;;;;;;118.35;40.08;;;;;;;-146.27;100.00;48375.69;5084907;28;20353;-69
2023/02/23 00:10:20;;;;;;;117.20;39.10;;;;;;;-146.27;100.00;48377.69;5087024;28;20024;-71
2023/02/23 00:12:46;;;;;;;131.13;42.20;;;;;;;-146.27;100.00;48387.63;5088952;28;20028;-69
2023/02/23 00:15:12;;;;;;;108.97;37.47;;;;;;;-146.27;100.00;48387.63;5089285;28;20020;-70
2023/02/23 00:17:39;;;;;;;120.97;40.20;;;;;;;-146.27;100.00;48359.75;5094219;28;20052;-70
2023/02/23 00:20:11;;;;;;;128.00;40.47;;;;;;;-146.27;100.00;48379.66;5085357;28;20115;-70
2023/02/23 00:22:39;;;;;;;111.68;37.85;;;;;;;-146.27;100.00;48363.75;5086550;28;20108;-71
2023/02/23 00:25:08;;;;;;;121.90;39.55;;;;;;;-146.27;100.00;48359.75;5082812;28;20038;-70
2023/02/23 00:27:35;;;;;;;113.03;39.55;;;;;;;-146.27;100.00;48359.75;5086764;28;20032;-69
2023/02/23 00:30:00;;;;;;;108.38;39.40;;;;;;;-146.27;100.00;48343.81;5091030;28;20029;-69
2023/02/23 00:32:29;;;;;;;117.93;39.92;;;;;;;-146.27;100.00;48359.75;5087204;28;20472;-69
2023/02/23 00:34:57;;;;;;;122.47;42.47;;;;;;;-146.27;100.00;48347.81;5089230;28;20433;-69
2023/02/23 00:37:22;;;;;;;115.95;39.58;;;;;;;-146.27;100.00;48357.75;5093665;28;20510;-71
2023/02/23 00:39:48;;;;;;;108.97;38.85;;;;;;;-146.27;100.00;48377.69;5090223;28;20016;-71
2023/02/23 00:42:14;;;;;;;116.85;39.13;;;;;;;-146.27;100.00;48379.66;5089792;28;20035;-69
2023/02/23 00:44:40;;;;;;;116.35;39.53;;;;;;;-146.27;100.00;48357.75;5091266;28;20077;-69
2023/02/23 00:47:06;;;;;;;119.97;38.67;;;;;;;-146.27;100.00;48357.75;5084874;28;21329;-70
2023/02/23 00:49:31;;;;;;;122.38;41.35;;;;;;;-146.27;100.00;48341.81;5093013;28;20024;-70
2023/02/23 00:51:57;;;;;;;119.80;39.78;;;;;;;-146.27;100.00;48353.78;5091060;28;20107;-69
2023/02/23 00:54:22;;;;;;;118.57;39.90;;;;;;;-146.27;100.00;48395.59;5091107;28;20107;-69
2023/02/23 00:56:49;;;;;;;117.93;41.00;;;;;;;-146.27;100.00;48355.78;5081383;28;20491;-69
2023/02/23 00:59:14;;;;;;;120.57;41.00;;;;;;;-146.27;100.00;48359.75;5089455;28;20027;-70
2023/02/23 01:01:40;;;;;;;118.65;39.33;;;;;;;-146.27;100.00;48377.69;5081827;28;20525;-70
2023/02/23 01:04:06;;;;;;;118.95;39.45;;;;;;;-146.27;100.00;48365.72;5083311;28;20035;-70
2023/02/23 01:06:32;;;;;;;122.97;40.38;;;;;;;-146.27;100.00;48357.75;5091287;28;20091;-70
2023/02/23 01:08:58;;;;;;;118.65;38.00;;;;;;;-146.27;100.00;48391.63;5083735;28;20045;-71
2023/02/23 01:11:27;;;;;;;123.25;40.70;;;;;;;-146.27;100.00;48391.63;5085457;28;20046;-71
2023/02/23 01:13:54;;;;;;;126.97;39.72;;;;;;;-146.27;100.00;48383.66;5085332;28;20458;-69
2023/02/23 01:16:26;;;;;;;129.85;40.78;;;;;;;-146.27;100.00;48379.66;5084805;28;20032;-71
2023/02/23 01:18:52;;;;;;;115.43;39.00;;;;;;;-146.27;100.00;48379.66;5090995;28;20059;-71
2023/02/23 01:21:27;;;;;;;126.63;40.22;;;;;;;-146.27;100.00;48377.69;5093774;28;20059;-70
2023/02/23 01:23:53;;;;;;;117.65;39.17;;;;;;;-146.27;100.00;48371.69;5085774;28;20042;-71
2023/02/23 01:26:22;;;;;;;124.13;39.53;;;;;;;-146.27;100.00;48397.59;5092634;28;20048;-70
2023/02/23 01:28:53;;;;;;;128.15;39.92;;;;;;;-146.27;100.00;48375.69;5085387;28;20035;-70
2023/02/23 01:31:19;;;;;;;123.85;41.05;;;;;;;-146.27;100.00;48383.66;5085487;28;20051;-70
2023/02/23 01:33:44;;;;;;;127.20;40.40;;;;;;;-146.27;100.00;48407.56;5086515;28;20067;-70
2023/02/23 01:36:11;;;;;;;120.70;40.35;;;;;;;-146.27;100.00;48361.75;5086710;28;20491;-70
2023/02/23 01:38:37;;;;;;;113.57;39.05;;;;;;;-146.27;100.00;48391.63;5079212;28;20055;-70
2023/02/23 01:41:03;;;;;;;134.35;42.75;;;;;;;-146.27;100.00;48383.66;5090498;28;20028;-70
2023/02/23 01:43:28;;;;;;;128.77;41.65;;;;;;;-146.27;100.00;48347.81;5086950;28;20462;-70
2023/02/23 01:45:56;;;;;;;133.10;40.88;;;;;;;-146.27;100.00;48385.66;5079803;28;20016;-70
2023/02/23 01:48:26;;;;;;;129.65;40.63;;;;;;;-146.27;100.00;48395.59;5080748;28;20071;-69
2023/02/23 01:50:56;;;;;;;131.52;40.83;;;;;;;-146.27;100.00;48381.66;5084144;28;20107;-70
2023/02/23 01:53:24;;;;;;;116.60;40.22;;;;;;;-146.27;100.00;48383.66;5088217;28;20434;-70
2023/02/23 01:56:04;;;;;;;131.50;40.95;;;;;;;-146.27;100.00;48391.63;5080813;28;20032;-70
2023/02/23 01:58:32;;;;;;;126.45;40.13;;;;;;;-146.27;100.00;48323.91;5084960;28;20099;-70
2023/02/23 02:01:01;;;;;;;131.02;40.13;;;;;;;-146.27;100.00;48363.75;5080671;28;20480;-71
2023/02/23 02:03:33;;;;;;;140.82;41.70;;;;;;;-146.27;100.00;48399.59;5083371;28;20028;-70
2023/02/23 02:06:01;;;;;;;131.02;39.92;;;;;;;-146.27;100.00;48385.66;5085658;28;20489;-70
2023/02/23 02:08:29;;;;;;;142.68;42.80;;;;;;;-146.27;100.00;48373.69;5090869;28;20035;-71
2023/02/23 02:10:56;;;;;;;138.27;41.00;;;;;;;-146.27;100.00;48381.66;5090355;28;20026;-69
2023/02/23 02:13:29;;;;;;;129.13;41.28;;;;;;;-146.27;100.00;48375.69;5086927;28;20024;-72
2023/02/23 02:16:16;;;;;;;134.93;41.22;;;;;;;-146.27;100.00;48347.81;5089047;28;20020;-71
2023/02/23 02:19:18;;;;;;;127.68;39.67;;;;;;;-146.27;100.00;48387.63;5093019;28;20522;-70
2023/02/23 02:22:00;;;;;;;142.98;40.00;;;;;;;-146.27;100.00;48349.78;5086301;28;20036;-70
2023/02/23 02:25:19;;;;;;;130.75;39.22;;;;;;;-146.27;100.00;48383.66;5080072;28;20027;-70
2023/02/23 02:27:45;;;;;;;129.25;38.28;;;;;;;-146.27;100.00;48395.59;5053529;28;20044;-72
2023/02/23 02:30:25;;;;;;;133.88;40.10;;;;;;;-146.27;100.00;48355.78;5060440;28;20037;-71
2023/02/23 02:33:30;;;;;;;142.50;38.50;;;;;;;-146.27;100.00;48351.78;5072882;28;20033;-71
2023/02/23 02:36:35;;;;;;;125.20;37.30;;;;;;;-146.27;100.00;48397.59;5087164;28;20024;-71
2023/02/23 02:39:38;;;;;;;137.00;37.58;;;;;;;-146.27;100.00;48383.66;5051498;28;20057;-70
2023/02/23 02:42:30;;;;;;;128.40;38.58;;;;;;;-146.27;100.00;48379.66;5078794;28;20012;-70
2023/02/23 02:45:06;;;;;;;137.45;39.92;;;;;;;-146.27;100.00;48397.59;5072417;28;20035;-71
2023/02/23 02:47:44;;;;;;;126.68;36.20;;;;;;;-146.27;100.00;48367.72;5090105;28;20042;-69
2023/02/23 02:50:16;;;;;;;136.68;39.15;;;;;;;-146.27;100.00;48387.63;5084249;28;20031;-70
2023/02/23 02:52:50;;;;;;;132.77;39.50;;;;;;;-146.27;100.00;48355.78;5084235;28;20028;-70
2023/02/23 02:55:25;;;;;;;;;;;;;;;-146.27;100.00;48363.75;5080263;28;20042;-69
2023/02/23 02:57:55;;;;;;;120.47;36.63;;;;;;;-146.27;100.00;48409.53;5085705;28;19959;-70
2023/02/23 04:18:24;;;;;;;137.05;35.65;;;;;;;-146.27;100.00;48395.59;5089962;28;20118;-71
2023/02/23 04:20:49;;;;;;;137.70;35.97;;;;;;;-146.27;100.00;48401.56;5078821;28;20415;-70
2023/02/23 04:23:15;;;;;;;109.53;32.75;;;;;;;-146.27;100.00;48361.75;5081467;28;20025;-71
2023/02/23 04:25:40;;;;;;;126.25;34.58;;;;;;;-146.27;100.00;48375.69;5082787;28;20029;-70
2023/02/23 04:28:06;;;;;;;130.73;35.70;;;;;;;-146.27;100.00;48375.69;5082185;28;20357;-70
2023/02/23 04:30:31;;;;;;;131.05;37.30;;;;;;;-146.27;100.00;48387.63;5092533;28;20062;-70
2023/02/23 04:32:58;;;;;;;129.38;33.78;;;;;;;-146.27;100.00;48375.69;5092426;28;20841;-70
2023/02/23 04:35:25;;;;;;;124.63;35.17;;;;;;;-146.27;100.00;48375.69;5090367;28;20032;-70
2023/02/23 04:37:51;;;;;;;118.75;33.53;;;;;;;-146.27;100.00;48393.63;5076121;28;20032;-69
2023/02/23 04:40:16;;;;;;;142.27;37.97;;;;;;;-146.27;100.00;48399.59;5088964;28;20030;-71
2023/02/23 04:42:42;;;;;;;129.82;34.42;;;;;;;-146.27;100.00;48387.63;5094261;28;20038;-70
2023/02/23 04:45:08;;;;;;;128.10;37.00;;;;;;;-146.27;100.00;48375.69;5077814;28;20102;-70
2023/02/23 04:47:33;;;;;;;138.75;36.42;;;;;;;-146.27;100.00;48347.81;5094228;28;20063;-70
2023/02/23 04:49:58;;;;;;;150.32;38.35;;;;;;;-146.27;100.00;48381.66;5086273;28;20016;-70
2023/02/23 04:52:24;;;;;;;143.68;37.20;;;;;;;-146.27;100.00;48417.50;5088953;28;20058;-70
2023/02/23 04:54:49;;;;;;;128.55;35.45;;;;;;;-146.27;100.00;48341.81;5085636;28;20494;-72
2023/02/23 04:57:15;;;;;;;134.52;36.88;;;;;;;-146.27;100.00;48375.69;5081101;28;20111;-71
2023/02/23 04:59:40;;;;;;;142.98;36.47;;;;;;;-146.27;100.00;48397.59;5085620;28;20111;-70
2023/02/23 05:02:06;;;;;;;140.88;36.05;;;;;;;-146.27;100.00;48395.59;5088204;28;20475;-70
2023/02/23 05:04:34;;;;;;;138.93;36.10;;;;;;;-146.27;100.00;48373.69;5077144;28;20021;-70
2023/02/23 05:07:00;;;;;;;147.95;37.97;;;;;;;-146.27;100.00;48399.59;5075603;28;20047;-71
2023/02/23 05:09:25;;;;;;;144.25;36.97;;;;;;;-146.27;100.00;48399.59;5078835;28;20106;-70
2023/02/23 05:11:51;;;;;;;141.43;38.63;;;;;;;-146.27;100.00;48397.59;5092817;28;20108;-69
2023/02/23 05:14:16;;;;;;;150.48;39.25;;;;;;;-146.27;100.00;48391.63;5090862;28;20024;-71
2023/02/23 05:16:41;;;;;;;154.20;37.90;;;;;;;-146.27;100.00;48379.66;5083509;28;20024;-69
2023/02/23 05:19:07;;;;;;;146.48;38.38;;;;;;;-146.27;100.00;48405.56;5088539;28;20024;-70
2023/02/23 05:21:32;;;;;;;146.85;37.38;;;;;;;-146.27;100.00;48383.66;5091496;28;20081;-71
2023/02/23 05:23:57;;;;;;;158.05;36.55;;;;;;;-146.27;100.00;48391.63;5088413;28;20445;-70
2023/02/23 05:26:23;;;;;;;148.10;36.50;;;;;;;-146.27;100.00;48377.69;5084600;28;20063;-71
2023/02/23 05:28:48;;;;;;;144.18;37.70;;;;;;;-146.27;100.00;48405.56;5081667;28;20020;-69
2023/02/23 05:31:14;;;;;;;134.55;34.35;;;;;;;-146.27;100.00;48363.75;5090670;28;20020;-70
2023/02/23 05:33:44;;;;;;;142.32;35.45;;;;;;;-146.27;100.00;48395.59;5083627;28;20036;-69
2023/02/23 05:36:11;;;;;;;163.70;37.05;;;;;;;-146.27;100.00;48389.63;5082652;28;20063;-70
2023/02/23 05:38:38;;;;;;;147.10;37.13;;;;;;;-146.27;100.00;48421.50;5082921;28;20539;-69
2023/02/23 05:41:05;;;;;;;142.65;36.53;;;;;;;-146.27;100.00;48407.56;5083333;28;20035;-71
2023/02/23 05:43:31;;;;;;;144.10;35.80;;;;;;;-146.27;100.00;48413.53;5079480;28;20422;-71
2023/02/23 05:45:56;;;;;;;134.43;34.42;;;;;;;-146.27;100.00;48411.53;5084059;28;20020;-71
2023/02/23 05:48:22;;;;;;;143.30;35.50;;;;;;;-146.27;100.00;48377.69;5077003;28;20150;-71
2023/02/23 05:50:48;;;;;;;140.27;35.45;;;;;;;-146.27;100.00;48343.81;5089446;28;20463;-71
2023/02/23 05:53:13;;;;;;;140.68;34.95;;;;;;;-146.27;100.00;48391.63;5090803;28;20024;-70
2023/02/23 05:55:39;;;;;;;140.65;34.78;;;;;;;-146.27;100.00;48383.66;5090872;28;20470;-70
2023/02/23 05:58:05;;;;;;;140.55;34.67;;;;;;;-146.27;100.00;48387.63;5089848;28;20039;-71
2023/02/23 06:00:31;;;;;;;149.75;36.42;;;;;;;-146.27;100.00;48379.66;5081926;28;20165;-71
2023/02/23 06:02:56;;;;;;;138.73;33.17;;;;;;;-146.27;100.00;48399.59;5087889;28;20039;-69
2023/02/23 06:05:21;;;;;;;137.93;34.13;;;;;;;-146.27;100.00;48391.63;5084970;28;20045;-71
2023/02/23 06:07:47;;;;;;;132.13;33.13;;;;;;;-146.27;100.00;48395.59;5087573;28;20024;-71
2023/02/23 06:10:13;;;;;;;126.20;32.88;;;;;;;-146.27;100.00;48377.69;5088419;28;20431;-69
2023/02/23 06:12:38;;;;;;;143.68;34.35;;;;;;;-146.27;100.00;48411.53;5086192;28;20028;-71
2023/02/23 06:15:04;;;;;;;128.90;32.92;;;;;;;-146.27;100.00;48389.63;5084231;28;20569;-71
2023/02/23 06:17:30;;;;;;;135.13;32.65;;;;;;;-146.27;100.00;48385.66;5088793;28;20035;-71
2023/02/23 06:19:57;;;;;;;137.00;32.92;;;;;;;-146.27;100.00;48391.63;5085650;28;20364;-70
2023/02/23 06:22:23;;;;;;;134.88;31.83;;;;;;;-146.27;100.00;48419.50;5086800;28;20483;-71
2023/02/23 06:24:48;;;;;;;138.15;33.20;;;;;;;-146.27;100.00;48403.56;5088203;28;20076;-71
2023/02/23 06:27:14;;;;;;;135.18;32.45;;;;;;;-146.27;100.00;48373.69;5091264;28;20016;-70
2023/02/23 06:29:39;;;;;;;144.65;34.55;;;;;;;-146.27;100.00;48407.56;5080905;28;20134;-72
2023/02/23 06:32:05;;;;;;;150.77;33.22;;;;;;;-146.27;100.00;48385.66;5086377;28;20028;-70
2023/02/23 06:34:30;;;;;;;145.95;32.63;;;;;;;-146.27;100.00;48375.69;5083050;28;20024;-70
2023/02/23 06:36:56;;;;;;;134.23;33.13;;;;;;;-146.27;100.00;48409.53;5089672;28;20032;-70
2023/02/23 06:39:21;;;;;;;126.72;32.40;;;;;;;-146.27;100.00;48389.63;5096397;28;20399;-70
2023/02/23 06:41:46;;;;;;;126.78;31.58;;;;;;;-146.27;100.00;48407.56;5095023;28;20024;-70
2023/02/23 06:44:12;;;;;;;135.68;33.15;;;;;;;-146.27;100.00;48403.56;5092139;28;20032;-70
2023/02/23 06:46:37;;;;;;;120.50;30.08;;;;;;;-146.27;100.00;48395.59;5083038;28;20013;-70
2023/02/23 06:49:03;;;;;;;137.82;32.55;;;;;;;-146.27;100.00;48435.44;5081400;28;20476;-71
2023/02/23 06:51:29;;;;;;;130.38;31.30;;;;;;;-146.27;100.00;48429.47;5090027;28;20539;-72
2023/02/23 06:53:54;;;;;;;142.18;31.55;;;;;;;-146.27;100.00;48383.66;5083445;28;20515;-69
2023/02/23 06:56:20;;;;;;;131.73;32.00;;;;;;;-146.27;100.00;48367.72;5087978;28;20052;-72
2023/02/23 06:58:46;;;;;;;134.02;30.77;;;;;;;-146.27;100.00;48387.63;5084612;28;20111;-69
2023/02/23 07:01:12;;;;;;;133.60;33.17;;;;;;;-146.27;100.00;48363.75;5086526;28;20474;-69
2023/02/23 07:03:37;;;;;;;134.55;32.58;;;;;;;-146.27;100.00;48387.63;5085770;28;20057;-69
2023/02/23 07:06:04;;;;;;;140.23;32.40;;;;;;;-146.27;100.00;48385.66;5087866;28;20117;-70
2023/02/23 07:08:30;;;;;;;129.38;30.73;;;;;;;-146.27;100.00;48385.66;5086677;28;20035;-70
2023/02/23 07:10:56;;;;;;;131.38;32.67;;;;;;;-146.27;100.00;48379.66;5084887;28;20343;-70
2023/02/23 07:13:22;;;;;;;127.80;31.70;;;;;;;-146.27;100.00;48367.72;5087017;28;20020;-69
2023/02/23 07:15:47;;;;;;;139.55;32.20;;;;;;;-146.27;100.00;48417.50;5086206;28;20028;-71
2023/02/23 07:18:13;;;;;;;130.13;30.85;;;;;;;-146.27;100.00;48399.59;5087814;28;20020;-70
2023/02/23 07:20:38;;;;;;;131.77;30.73;;;;;;;-146.27;100.00;48387.63;5089313;28;20103;-71
2023/02/23 07:23:03;;;;;;;132.15;31.83;;;;;;;-146.27;100.00;48347.81;5090474;28;20035;-71
2023/02/23 07:25:29;;;;;;;134.90;31.55;;;;;;;-146.27;100.00;48407.56;5102772;28;20511;-71
2023/02/23 07:27:55;;;;;;;144.75;32.67;;;;;;;-146.27;100.00;48397.59;5107436;28;20020;-70
2023/02/23 07:30:23;;;;;;;135.52;30.90;;;;;;;-146.27;100.00;48365.72;5086749;28;20035;-70
2023/02/23 07:32:50;;;;;;;127.00;29.77;;;;;;;-146.27;100.00;48357.75;5082846;28;20439;-71
2023/02/23 07:35:16;;;;;;;129.63;30.95;;;;;;;-146.27;100.00;48411.53;5090357;28;20024;-70
2023/02/23 07:37:41;;;;;;;130.00;31.77;;;;;;;-146.27;100.00;48361.75;5095969;28;20086;-71
2023/02/23 07:40:08;;;;;;;146.63;30.23;;;;;;;-146.27;100.00;48387.63;5085986;28;20407;-70
2023/02/23 07:42:33;;;;;;;138.98;30.58;;;;;;;-146.27;100.00;48401.56;5083930;28;20024;-70
2023/02/23 07:44:59;;;;;;;136.20;29.92;;;;;;;-146.27;100.00;48407.56;5085720;28;20032;-71
2023/02/23 07:47:29;;;;;;;145.90;29.85;;;;;;;-146.27;100.00;48387.63;5085552;28;20060;-70
2023/02/23 07:49:59;;;;;;;124.18;30.20;;;;;;;-146.27;100.00;48385.66;5085987;28;20024;-70
2023/02/23 07:52:25;;;;;;;123.38;32.05;;;;;;;-146.27;100.00;48395.59;5099032;28;20027;-70
2023/02/23 07:54:50;;;;;;;134.27;29.23;;;;;;;-146.27;100.00;48367.72;5093539;28;20042;-71
2023/02/23 07:57:16;;;;;;;128.48;29.50;;;;;;;-146.27;100.00;48379.66;5098901;28;20027;-70
2023/02/23 07:59:42;;;;;;;128.05;28.08;;;;;;;-146.27;100.00;48375.69;5098704;28;20028;-71
2023/02/23 08:02:10;;;;;;;123.72;27.90;;;;;;;-146.27;100.00;48363.75;5082359;28;20390;-71
2023/02/23 08:04:36;;;;;;;100.93;26.13;;;;;;;-146.27;100.00;48419.50;5074983;28;20112;-71
2023/02/23 08:07:01;;;;;;;108.07;27.60;;;;;;;-146.27;100.00;48411.53;5086307;28;20071;-70
2023/02/23 08:09:26;;;;;;;124.65;28.73;;;;;;;-146.27;100.00;48407.56;5092188;28;20418;-72
2023/02/23 08:11:52;;;;;;;118.47;28.05;;;;;;;-146.27;100.00;48347.81;5097321;28;20460;-71
2023/02/23 08:14:20;;;;;;;105.75;26.10;;;;;;;-146.27;100.00;48401.56;5095200;28;20042;-71
2023/02/23 08:16:46;;;;;;;113.15;26.15;;;;;;;-146.27;100.00;48379.66;5093588;28;20502;-71
2023/02/23 08:19:11;;;;;;;99.93;25.60;;;;;;;-146.27;100.00;48403.56;5093547;28;20046;-70
2023/02/23 08:21:36;;;;;;;108.57;25.73;;;;;;;-146.27;100.00;48381.66;5095178;28;20020;-71
2023/02/23 08:24:02;;;;;;;108.22;25.15;;;;;;;-146.27;100.00;48391.63;5095975;28;20034;-71
2023/02/23 08:26:27;;;;;;;112.80;27.10;;;;;;;-146.27;100.00;48383.66;5099994;28;20028;-71
2023/02/23 08:28:53;;;;;;;92.90;23.95;;;;;;;-146.27;100.00;48371.69;5095219;28;20024;-71
2023/02/23 08:31:22;;;;;;;105.40;26.42;;;;;;;-146.27;100.00;48399.59;5102786;28;20059;-71
2023/02/23 08:33:48;;;;;;;94.35;25.50;;;;;;;-146.27;100.00;48399.59;5094388;28;20043;-72
2023/02/23 08:36:13;;;;;;;97.40;25.45;;;;;;;-146.27;100.00;48359.75;5095052;28;20472;-71
2023/02/23 08:38:39;;;;;;;105.20;24.70;;;;;;;-146.27;100.00;48383.66;5098827;28;20028;-70
2023/02/23 08:41:05;;;;;;;88.68;23.80;;;;;;;-146.27;100.00;48353.78;5093672;28;20030;-70
2023/02/23 08:43:31;;;;;;;85.07;25.13;;;;;;;-146.27;100.00;48383.66;5094913;28;20070;-70
2023/02/23 08:45:56;;;;;;;98.43;25.48;;;;;;;-146.27;100.00;48377.69;5091910;28;20063;-70
2023/02/23 08:48:23;;;;;;;103.15;25.13;;;;;;;-146.27;100.00;48409.53;5094877;28;20031;-71
2023/02/23 08:50:49;;;;;;;84.78;22.70;;;;;;;-146.27;100.00;48375.69;5093585;28;20121;-71
2023/02/23 08:53:15;;;;;;;85.25;21.48;;;;;;;-146.27;100.00;48385.66;5093047;28;20024;-70
2023/02/23 08:55:40;;;;;;;67.68;20.27;;;;;;;-146.27;100.00;48393.63;5097638;28;20110;-70
2023/02/23 08:58:10;;;;;;;59.97;18.02;;;;;;;-146.27;100.00;48367.72;5095696;28;20483;-72
2023/02/23 09:00:36;;;;;;;60.08;17.45;;;;;;;-146.27;100.00;48379.66;5094867;28;20038;-71
2023/02/23 09:03:04;;;;;;;56.58;17.25;;;;;;;-146.27;100.00;48393.63;5092317;28;20110;-71
2023/02/23 09:05:30;;;;;;;50.72;16.98;;;;;;;-146.27;100.00;48359.75;5093728;28;20044;-70
2023/02/23 09:07:56;;;;;;;41.95;14.73;;;;;;;-146.27;100.00;48367.72;5092996;28;20368;-70
2023/02/23 09:10:27;;;;;;;41.63;15.00;;;;;;;-146.27;100.00;48367.72;5081140;28;20105;-70
2023/02/23 09:12:53;;;;;;;37.50;13.82;;;;;;;-146.27;100.00;48379.66;5091479;28;20028;-69
2023/02/23 09:15:18;;;;;;;35.65;14.20;;;;;;;-146.27;100.00;48341.81;5089244;28;20083;-70
2023/02/23 09:17:46;;;;;;;31.08;12.25;;;;;;;-146.27;100.00;48387.63;5080507;28;20383;-70
2023/02/23 09:20:12;;;;;;;28.85;12.30;;;;;;;-146.27;100.00;48397.59;5091441;28;20059;-70
2023/02/23 09:22:39;;;;;;;31.30;12.27;;;;;;;-146.27;100.00;48395.59;5091176;28;20024;-69
2023/02/23 09:25:05;;;;;;;31.73;13.32;;;;;;;-146.27;100.00;48361.75;5086749;28;20024;-70
2023/02/23 09:27:30;;;;;;;28.33;12.48;;;;;;;-146.27;100.00;48355.78;5089346;28;20024;-70
2023/02/23 09:29:56;;;;;;;28.23;11.90;;;;;;;-146.27;100.00;48369.72;5096402;28;20051;-70
2023/02/23 09:32:21;;;;;;;29.02;11.68;;;;;;;-146.27;100.00;48341.81;5095959;28;20019;-69
2023/02/23 09:34:47;;;;;;;27.88;12.00;;;;;;;-146.27;100.00;48375.69;5092311;28;20111;-71
2023/02/23 09:37:13;;;;;;;32.67;11.88;;;;;;;-146.27;100.00;48351.78;5090591;28;20059;-69
2023/02/23 09:39:38;;;;;;;32.08;13.13;;;;;;;-146.27;100.00;48363.75;5079179;28;20102;-70
2023/02/23 09:42:14;;;;;;;26.65;10.93;;;;;;;-146.27;100.00;48379.66;5091261;28;20028;-70
2023/02/23 09:44:56;;;;;;;24.35;10.93;;;;;;;-146.27;100.00;48383.66;5087810;28;20043;-71
2023/02/23 09:48:08;;;;;;;26.88;11.20;;;;;;;-146.27;100.00;48375.69;5082356;28;20020;-72
2023/02/23 09:50:37;;;;;;;26.45;10.77;;;;;;;-146.27;100.00;48381.66;5063101;28;20484;-70
2023/02/23 09:53:35;;;;;;;25.90;10.70;;;;;;;-146.27;100.00;48369.72;5074813;28;20024;-70
2023/02/23 09:56:09;;;;;;;24.92;11.35;;;;;;;-146.27;100.00;48359.75;5082903;28;20058;-70
2023/02/23 09:58:37;;;;;;;27.98;11.38;;;;;;;-146.27;100.00;48387.63;5090283;28;20028;-70
2023/02/23 10:01:08;;;;;;;21.42;11.00;;;;;;;-146.27;100.00;48397.59;5080049;28;20039;-68
2023/02/23 10:03:39;;;;;;;21.77;9.68;;;;;;;-146.27;100.00;48351.78;5088348;28;20070;-68
2023/02/23 10:06:09;;;;;;;24.75;11.00;;;;;;;-146.27;100.00;48387.63;5078358;28;20127;-70
2023/02/23 10:09:06;;;;;;;21.90;10.80;;;;;;;-146.27;100.00;48387.63;5088006;28;20040;-70
2023/02/23 10:11:56;;;;;;;23.55;9.93;;;;;;;-146.27;100.00;48367.72;5070421;28;20032;-70
2023/02/23 10:14:46;;;;;;;22.85;10.18;;;;;;;-146.27;100.00;48375.69;5087429;28;20039;-70
2023/02/23 10:17:18;;;;;;;21.23;11.00;;;;;;;-146.27;100.00;48369.72;5089154;28;20024;-69
2023/02/23 10:19:54;;;;;;;20.08;8.95;;;;;;;-146.27;100.00;48403.56;5091267;28;20559;-71
2023/02/23 10:22:19;;;;;;;21.17;9.65;;;;;;;-146.27;100.00;48391.63;5077894;28;20028;-70
2023/02/23 10:24:54;;;;;;;27.73;10.40;;;;;;;-146.27;100.00;48397.59;5092486;28;20036;-69
2023/02/23 10:27:24;;;;;;;24.00;10.95;;;;;;;-146.27;100.00;48381.66;5094000;28;20080;-70
2023/02/23 10:29:54;;;;;;;24.35;10.27;;;;;;;-146.27;100.00;48403.56;5074337;28;20356;-70
2023/02/23 10:32:57;;;;;;;21.17;10.10;;;;;;;-146.27;100.00;48383.66;5084894;28;20085;-71
2023/02/23 10:35:23;;;;;;;19.15;9.50;;;;;;;-146.27;100.00;48371.69;5076432;28;20052;-70
2023/02/23 10:37:51;;;;;;;23.58;10.82;;;;;;;-146.27;100.00;48367.72;5089784;28;20467;-70
2023/02/23 10:40:23;;;;;;;22.02;9.93;;;;;;;-146.27;100.00;48343.81;5089576;28;20028;-69
2023/02/23 10:42:50;;;;;;;27.67;10.95;;;;;;;-146.27;100.00;48351.78;5090542;28;20031;-69
2023/02/23 10:45:21;;;;;;;23.70;11.30;;;;;;;-146.27;100.00;48333.88;5087021;28;20106;-70
2023/02/23 10:47:52;;;;;;;23.27;9.73;;;;;;;-146.27;100.00;48393.63;5079310;28;20024;-71
2023/02/23 10:50:18;;;;;;;26.08;10.73;;;;;;;-146.27;100.00;48353.78;5085323;28;20165;-69
2023/02/23 10:52:46;;;;;;;35.72;11.65;;;;;;;-146.27;100.00;48379.66;5101543;28;20028;-74
2023/02/23 10:55:27;;;;;;;26.58;10.95;;;;;;;-146.27;100.00;48363.75;5090682;28;20468;-74
2023/02/23 10:58:17;;;;;;;22.20;10.38;;;;;;;-146.27;100.00;48357.75;5097045;28;20116;-73
2023/02/23 11:00:59;;;;;;;23.40;11.40;;;;;;;-146.27;100.00;48351.78;5084539;28;20088;-75
2023/02/23 11:03:46;;;;;;;25.42;10.05;;;;;;;-146.27;100.00;48367.72;5103124;28;20474;-76
2023/02/23 11:06:33;;;;;;;22.83;10.40;;;;;;;-146.27;100.00;48387.63;5089496;28;20093;-77
2023/02/23 11:09:26;;;;;;;26.83;11.73;;;;;;;-146.27;100.00;48359.75;5090000;28;20102;-75
2023/02/23 11:12:01;;;;;;;27.80;11.23;;;;;;;-146.27;100.00;48389.63;5087821;28;20036;-76
2023/02/23 11:14:28;;;;;;;27.42;11.88;;;;;;;-146.27;100.00;48373.69;5082360;28;20480;-75
2023/02/23 11:16:59;;;;;;;29.67;12.30;;;;;;;-146.27;100.00;48363.75;5089815;28;20024;-76
2023/02/23 11:19:36;;;;;;;28.70;11.50;;;;;;;-146.27;100.00;48367.72;5087964;28;20035;-76
2023/02/23 11:22:04;;;;;;;34.72;11.93;;;;;;;-146.27;100.00;48393.63;5073566;28;20028;-76
2023/02/23 11:24:36;;;;;;;30.02;12.73;;;;;;;-146.27;100.00;48371.69;5081193;28;20040;-75
2023/02/23 11:27:05;;;;;;;30.77;12.48;;;;;;;-146.27;100.00;48387.63;5080457;28;20522;-75
2023/02/23 11:29:42;;;;;;;26.63;11.15;;;;;;;-146.27;100.00;48369.72;5083663;28;20027;-77
2023/02/23 11:32:12;;;;;;;30.40;12.32;;;;;;;-146.27;100.00;48357.75;5080329;28;20043;-77
2023/02/23 11:34:39;;;;;;;31.55;13.02;;;;;;;-146.27;100.00;48367.72;5087129;28;20020;-77
2023/02/23 11:37:20;;;;;;;37.03;13.27;;;;;;;-146.27;100.00;48377.69;5085556;28;20481;-75
2023/02/23 11:39:57;;;;;;;33.15;13.07;;;;;;;-146.27;100.00;48353.78;5087211;28;20028;-76
2023/02/23 11:42:26;;;;;;;35.45;14.15;;;;;;;-146.27;100.00;48383.66;5078648;28;20111;-75
2023/02/23 11:45:06;;;;;;;35.85;13.60;;;;;;;-146.27;100.00;48359.75;5088729;28;20383;-75
2023/02/23 11:47:37;;;;;;;39.72;14.90;;;;;;;-146.27;100.00;48363.75;5085860;28;20071;-75
2023/02/23 11:50:05;;;;;;;36.88;14.05;;;;;;;-146.27;100.00;48355.78;5082202;28;20464;-76
2023/02/23 11:52:31;;;;;;;45.75;15.63;;;;;;;-146.27;100.00;48349.78;5073148;28;20165;-76
2023/02/23 11:54:59;;;;;;;45.28;15.93;;;;;;;-146.27;100.00;48371.69;5086750;28;20272;-76
2023/02/23 11:57:34;;;;;;;40.30;14.95;;;;;;;-146.27;100.00;48365.72;5090280;28;20059;-77
2023/02/23 12:00:23;;;;;;;39.00;15.63;;;;;;;-146.27;100.00;48363.75;5091555;28;20080;-76
2023/02/23 12:02:54;;;;;;;42.85;15.80;;;;;;;-146.27;100.00;48361.75;5089529;28;20032;-75
2023/02/23 12:05:27;;;;;;;43.70;16.77;;;;;;;-146.27;100.00;48355.78;5079226;28;20076;-76
2023/02/23 12:08:04;;;;;;;37.33;15.50;;;;;;;-146.27;100.00;48367.72;5090158;28;20024;-75
2023/02/23 12:10:36;;;;;;;48.08;16.80;;;;;;;-146.27;100.00;48375.69;5084727;28;20310;-75
2023/02/23 12:13:22;;;;;;;47.17;16.17;;;;;;;-146.27;100.00;48375.69;5096541;28;20024;-75
2023/02/23 12:15:58;;;;;;;39.95;16.48;;;;;;;-146.27;100.00;48403.56;5082319;28;20103;-75
2023/02/23 12:18:39;;;;;;;39.63;16.05;;;;;;;-146.27;100.00;48313.94;5094128;28;20301;-75